createdAt,value
2019-02-17T00:01:29.276Z,64.60
2019-02-17T00:03:55.495Z,64.70
2019-02-17T00:06:21.677Z,64.80
2019-02-17T00:08:47.866Z,64.80
2019-02-17T00:11:14.031Z,65.70
2019-02-17T00:13:40.298Z,65.20
2019-02-17T00:16:06.590Z,65.10
2019-02-17T00:18:32.773Z,65.00
2019-02-17T00:21:01.774Z,65.00
2019-02-17T00:23:27.956Z,64.90
2019-02-17T00:25:54.120Z,65.70
2019-02-17T00:28:20.338Z,65.00
2019-02-17T00:30:46.601Z,65.00
2019-02-17T00:33:12.778Z,65.10
2019-02-17T00:35:39.128Z,65.10
2019-02-17T00:38:05.820Z,65.20
2019-02-17T00:40:31.999Z,65.00
2019-02-17T00:43:04.243Z,65.20
2019-02-17T00:45:30.513Z,65.30
2019-02-17T00:47:56.684Z,65.20
2019-02-17T00:50:22.925Z,65.20
2019-02-17T00:52:49.176Z,65.40
2019-02-17T00:55:15.375Z,65.50
2019-02-17T00:57:41.556Z,65.50
2019-02-17T01:00:12.301Z,65.60
2019-02-17T01:02:41.087Z,65.50
2019-02-17T01:05:07.476Z,65.40
2019-02-17T01:07:33.661Z,65.60
2019-02-17T01:09:59.839Z,65.70
2019-02-17T01:12:26.018Z,66.00
2019-02-17T01:14:52.191Z,66.20
2019-02-17T01:17:18.485Z,66.70
2019-02-17T01:19:44.637Z,66.70
2019-02-17T01:22:10.814Z,66.60
2019-02-17T01:24:36.973Z,66.50
2019-02-17T01:27:03.201Z,66.30
2019-02-17T01:29:29.425Z,66.50
2019-02-17T01:31:55.606Z,66.60
2019-02-17T01:34:21.750Z,66.50
2019-02-17T01:36:47.927Z,66.40
2019-02-17T01:39:32.299Z,66.40
2019-02-17T01:42:01.054Z,66.40
2019-02-17T01:44:27.229Z,66.60
2019-02-17T01:46:53.420Z,66.60
2019-02-17T01:49:19.586Z,66.80
2019-02-17T01:51:45.754Z,66.80
2019-02-17T01:54:11.938Z,66.90
2019-02-17T01:56:38.115Z,67.00
2019-02-17T01:59:04.436Z,67.20
2019-02-17T02:01:30.626Z,67.40
2019-02-17T02:03:56.818Z,67.60
2019-02-17T02:06:23.016Z,67.70
2019-02-17T02:08:49.196Z,67.70
2019-02-17T02:11:15.396Z,67.60
2019-02-17T02:13:41.589Z,67.40
2019-02-17T02:16:07.849Z,67.40
2019-02-17T02:18:34.048Z,67.50
2019-02-17T02:21:00.212Z,67.40
2019-02-17T02:23:35.515Z,67.50
2019-02-17T02:26:04.239Z,67.30
2019-02-17T02:28:30.490Z,67.30
2019-02-17T02:30:56.707Z,67.40
2019-02-17T02:33:22.883Z,67.50
2019-02-17T02:36:04.273Z,67.50
2019-02-17T02:38:33.084Z,67.40
2019-02-17T02:40:59.315Z,67.50
2019-02-17T02:43:25.503Z,67.60
2019-02-17T02:45:51.727Z,67.60
2019-02-17T02:48:18.044Z,67.60
2019-02-17T02:50:44.235Z,67.70
2019-02-17T02:53:10.455Z,68.30
2019-02-17T02:58:32.702Z,67.70
2019-02-17T03:00:59.005Z,67.70
2019-02-17T03:03:40.488Z,68.10
2019-02-17T03:06:14.862Z,68.30
2019-02-17T03:08:41.043Z,68.50
2019-02-17T03:11:07.218Z,68.40
2019-02-17T03:13:33.418Z,68.40
2019-02-17T03:15:59.668Z,68.40
2019-02-17T03:18:25.914Z,68.40
2019-02-17T03:20:52.123Z,68.60
2019-02-17T03:23:18.311Z,68.70
2019-02-17T03:25:56.562Z,68.60
2019-02-17T03:28:22.751Z,68.60
2019-02-17T03:31:01.122Z,68.50
2019-02-17T03:33:27.308Z,68.50
2019-02-17T03:35:53.648Z,68.60
2019-02-17T03:38:35.095Z,68.70
2019-02-17T03:41:04.150Z,68.60
2019-02-17T03:43:30.430Z,68.50
2019-02-17T03:45:56.634Z,68.40
2019-02-17T03:48:22.987Z,68.40
2019-02-17T03:50:49.211Z,68.50
2019-02-17T03:53:15.418Z,68.30
2019-02-17T03:55:41.657Z,68.30
2019-02-17T03:58:07.901Z,68.30
2019-02-17T04:00:36.848Z,68.30
2019-02-17T04:03:03.075Z,68.20
2019-02-17T04:05:29.366Z,68.20
2019-02-17T04:07:58.387Z,68.30
2019-02-17T04:10:24.560Z,68.20
2019-02-17T04:12:50.845Z,68.20
2019-02-17T04:15:17.023Z,68.20
2019-02-17T04:17:43.200Z,68.50
2019-02-17T04:20:12.304Z,68.30
2019-02-17T04:22:38.499Z,68.20
2019-02-17T04:25:04.966Z,68.20
2019-02-17T04:27:34.023Z,68.10
2019-02-17T04:30:00.483Z,68.20
2019-02-17T04:32:45.176Z,68.10
2019-02-17T04:35:11.338Z,68.10
2019-02-17T04:37:37.528Z,68.00
2019-02-17T04:40:06.413Z,68.10
2019-02-17T04:42:32.790Z,68.20
2019-02-17T04:44:58.972Z,68.20
2019-02-17T04:47:25.150Z,68.10
2019-02-17T04:49:51.360Z,68.20
2019-02-17T04:52:17.614Z,68.30
2019-02-17T04:54:52.872Z,68.10
2019-02-17T04:57:19.165Z,68.20
2019-02-17T04:59:45.533Z,69.00
2019-02-17T05:02:11.698Z,68.20
2019-02-17T05:04:56.471Z,68.10
2019-02-17T05:07:22.621Z,68.10
2019-02-17T05:09:48.835Z,68.30
2019-02-17T05:12:15.139Z,68.40
2019-02-17T05:14:44.042Z,68.30
2019-02-17T05:17:10.191Z,68.30
2019-02-17T05:19:49.541Z,68.30
2019-02-17T05:22:15.709Z,67.60
2019-02-17T05:24:41.896Z,68.30
2019-02-17T05:27:08.185Z,68.40
2019-02-17T05:29:34.375Z,68.50
2019-02-17T05:32:00.542Z,68.50
2019-02-17T05:34:26.735Z,68.50
2019-02-17T05:36:52.983Z,68.60
2019-02-17T05:39:19.191Z,68.90
2019-02-17T05:41:45.398Z,68.90
2019-02-17T05:44:11.581Z,69.10
2019-02-17T05:46:37.783Z,69.10
2019-02-17T05:49:04.069Z,69.10
2019-02-17T05:51:30.244Z,69.10
2019-02-17T05:53:56.440Z,69.10
2019-02-17T05:56:34.813Z,69.10
2019-02-17T05:59:01.145Z,69.00
2019-02-17T06:01:27.433Z,69.10
2019-02-17T06:03:53.632Z,69.10
2019-02-17T06:06:29.246Z,69.20
2019-02-17T06:08:55.432Z,69.20
2019-02-17T06:11:21.596Z,69.00
2019-02-17T06:13:47.767Z,69.10
2019-02-17T06:16:23.023Z,69.00
2019-02-17T06:19:01.351Z,69.20
2019-02-17T06:21:27.531Z,69.30
2019-02-17T06:23:53.753Z,69.30
2019-02-17T06:26:19.950Z,69.40
2019-02-17T06:28:46.120Z,69.40
2019-02-17T06:31:14.682Z,69.30
2019-02-17T06:33:43.383Z,69.40
2019-02-17T06:36:09.984Z,69.40
2019-02-17T06:38:36.202Z,69.50
2019-02-17T06:41:02.437Z,69.50
2019-02-17T06:43:28.896Z,69.60
2019-02-17T06:45:57.950Z,69.70
2019-02-17T06:48:24.248Z,69.70
2019-02-17T06:50:53.388Z,70.00
2019-02-17T06:53:19.613Z,70.10
2019-02-17T06:56:00.152Z,70.20
2019-02-17T06:58:29.126Z,70.20
2019-02-17T07:01:04.498Z,70.50
2019-02-17T07:03:30.779Z,70.80
2019-02-17T07:06:05.311Z,71.10
2019-02-17T07:08:31.648Z,71.40
2019-02-17T07:10:57.898Z,72.60
2019-02-17T07:13:26.728Z,72.00
2019-02-17T07:15:52.930Z,71.90
2019-02-17T07:18:19.107Z,71.90
2019-02-17T07:20:45.506Z,72.00
2019-02-17T07:23:11.791Z,72.00
2019-02-17T07:25:38.070Z,72.30
2019-02-17T07:28:04.270Z,72.90
2019-02-17T07:30:30.451Z,73.00
2019-02-17T07:32:56.982Z,73.60
2019-02-17T07:35:23.192Z,73.50
2019-02-17T07:37:52.321Z,73.70
2019-02-17T07:40:18.496Z,74.20
2019-02-17T07:42:44.688Z,73.50
2019-02-17T07:45:10.872Z,73.70
2019-02-17T07:47:37.187Z,73.80
2019-02-17T07:50:08.077Z,73.60
2019-02-17T07:52:34.402Z,73.60
2019-02-17T07:55:00.650Z,73.70
2019-02-17T07:57:26.825Z,74.00
2019-02-17T07:59:53.053Z,74.20
2019-02-17T08:02:19.272Z,74.00
2019-02-17T08:04:48.582Z,74.00
2019-02-17T08:07:14.747Z,74.30
2019-02-17T08:09:41.043Z,74.60
2019-02-17T08:12:07.270Z,74.70
2019-02-17T08:14:33.539Z,74.90
2019-02-17T08:16:59.747Z,75.30
2019-02-17T08:19:26.065Z,75.70
2019-02-17T08:21:52.245Z,76.10
2019-02-17T08:24:18.417Z,75.90
2019-02-17T08:26:44.682Z,76.10
2019-02-17T08:29:10.860Z,76.10
2019-02-17T08:31:37.059Z,76.20
2019-02-17T08:34:03.306Z,76.40
2019-02-17T08:36:29.630Z,76.20
2019-02-17T08:38:58.493Z,76.40
2019-02-17T08:41:24.652Z,76.80
2019-02-17T08:44:09.398Z,76.70
2019-02-17T08:46:35.704Z,76.90
2019-02-17T08:49:04.838Z,76.70
2019-02-17T08:51:31.009Z,76.70
2019-02-17T08:54:00.034Z,76.90
2019-02-17T08:56:26.200Z,76.80
2019-02-17T08:58:52.421Z,76.60
2019-02-17T09:01:18.732Z,76.50
2019-02-17T09:03:48.039Z,76.30
2019-02-17T09:06:32.752Z,76.30
2019-02-17T09:08:59.041Z,76.60
2019-02-17T09:11:43.952Z,76.30
2019-02-17T09:14:10.145Z,76.20
2019-02-17T09:16:39.350Z,76.20
2019-02-17T09:19:05.691Z,76.20
2019-02-17T09:21:34.782Z,76.30
2019-02-17T09:24:01.055Z,76.20
2019-02-17T09:26:29.556Z,76.00
2019-02-17T09:28:55.796Z,76.20
2019-02-17T09:31:31.299Z,75.90
2019-02-17T09:33:57.542Z,75.90
2019-02-17T09:36:23.718Z,75.90
2019-02-17T09:38:49.894Z,76.00
2019-02-17T09:41:16.075Z,75.80
2019-02-17T09:43:45.756Z,75.70
2019-02-17T09:46:12.167Z,75.50
2019-02-17T09:48:38.402Z,75.90
2019-02-17T09:51:04.620Z,75.00
2019-02-17T09:53:30.816Z,75.10
2019-02-17T09:55:58.788Z,75.00
2019-02-17T09:58:25.131Z,74.80
2019-02-17T10:00:51.473Z,75.00
2019-02-17T10:03:26.949Z,74.70
2019-02-17T10:05:53.187Z,74.50
2019-02-17T10:08:19.460Z,74.30
2019-02-17T10:10:45.670Z,74.10
2019-02-17T10:13:11.860Z,73.50
2019-02-17T10:15:38.047Z,73.10
2019-02-17T10:18:04.207Z,72.30
2019-02-17T10:20:30.390Z,72.20
2019-02-17T10:22:56.572Z,72.20
2019-02-17T10:25:22.798Z,72.40
2019-02-17T10:27:49.098Z,72.10
2019-02-17T10:30:16.594Z,72.00
2019-02-17T10:32:42.852Z,71.40
2019-02-17T10:35:09.262Z,71.30
2019-02-17T10:37:53.794Z,70.80
2019-02-17T10:40:19.976Z,70.60
2019-02-17T10:43:04.522Z,70.50
2019-02-17T10:45:30.809Z,70.20
2019-02-17T10:47:57.090Z,70.00
2019-02-17T10:50:23.278Z,69.70
2019-02-17T10:52:49.490Z,69.20
2019-02-17T10:55:15.716Z,68.60
2019-02-17T10:57:44.825Z,68.70
2019-02-17T11:00:29.680Z,68.40
2019-02-17T11:03:05.018Z,68.00
2019-02-17T11:05:34.015Z,68.40
2019-02-17T11:08:00.184Z,68.10
2019-02-17T11:10:26.453Z,67.80
2019-02-17T11:12:52.657Z,67.60
2019-02-17T11:15:19.309Z,66.80
2019-02-17T11:18:03.950Z,66.40
2019-02-17T11:20:35.884Z,65.80
2019-02-17T11:23:02.060Z,64.00
2019-02-17T11:25:28.229Z,64.20
2019-02-17T11:27:54.485Z,64.50
2019-02-17T11:30:21.045Z,64.70
2019-02-17T11:32:57.731Z,63.60
2019-02-17T11:35:17.860Z,63.90
2019-02-17T11:37:46.682Z,63.60
2019-02-17T11:40:13.130Z,63.60
2019-02-17T11:42:57.718Z,62.20
2019-02-17T11:45:23.882Z,62.10
2019-02-17T11:47:50.099Z,61.90
2019-02-17T11:50:18.797Z,61.20
2019-02-17T11:52:45.020Z,61.70
2019-02-17T11:55:13.021Z,62.20
2019-02-17T11:57:39.335Z,62.00
2019-02-17T12:00:20.467Z,61.10
2019-02-17T12:03:07.519Z,59.10
2019-02-17T12:05:27.341Z,59.70
2019-02-17T12:07:53.512Z,59.80
2019-02-17T12:10:19.679Z,59.60
2019-02-17T12:12:45.855Z,60.00
2019-02-17T12:15:12.692Z,59.40
2019-02-17T12:17:41.614Z,59.30
2019-02-17T12:20:33.497Z,58.90
2019-02-17T12:23:01.575Z,59.00
2019-02-17T12:25:48.333Z,59.10
2019-02-17T12:28:16.490Z,58.90
2019-02-17T12:30:47.180Z,58.90
2019-02-17T12:33:19.178Z,59.10
2019-02-17T12:35:41.491Z,58.20
2019-02-17T12:38:07.795Z,57.30
2019-02-17T12:40:34.085Z,57.20
2019-02-17T12:43:03.175Z,57.00
2019-02-17T12:45:31.901Z,57.10
2019-02-17T12:47:58.571Z,57.10
2019-02-17T12:50:27.558Z,56.00
2019-02-17T12:52:53.726Z,54.60
2019-02-17T12:55:19.905Z,55.20
2019-02-17T12:57:46.307Z,55.80
2019-02-17T13:00:16.162Z,54.90
2019-02-17T13:02:42.429Z,55.30
2019-02-17T13:05:09.210Z,55.50
2019-02-17T13:07:44.564Z,55.00
2019-02-17T13:10:13.385Z,54.30
2019-02-17T13:12:39.579Z,53.90
2019-02-17T13:15:10.604Z,53.40
2019-02-17T13:17:36.850Z,54.20
2019-02-17T13:20:06.688Z,53.70
2019-02-17T13:22:35.661Z,53.90
2019-02-17T13:25:01.918Z,52.60
2019-02-17T13:27:30.968Z,52.60
2019-02-17T13:29:57.169Z,53.40
2019-02-17T13:32:23.334Z,53.80
2019-02-17T13:34:49.515Z,53.80
2019-02-17T13:37:18.363Z,53.90
2019-02-17T13:39:44.561Z,54.20
2019-02-17T13:42:10.836Z,53.90
2019-02-17T13:44:37.067Z,52.60
2019-02-17T13:47:03.227Z,53.00
2019-02-17T13:49:29.443Z,52.90
2019-02-17T13:51:55.621Z,51.30
2019-02-17T13:54:21.797Z,52.80
2019-02-17T13:56:48.210Z,52.10
2019-02-17T13:59:16.994Z,54.00
2019-02-17T14:01:45.688Z,54.40
2019-02-17T14:04:11.923Z,51.80
2019-02-17T14:06:38.343Z,50.70
2019-02-17T14:09:07.690Z,49.80
2019-02-17T14:11:36.761Z,50.50
2019-02-17T14:14:05.719Z,49.60
2019-02-17T14:16:31.934Z,46.70
2019-02-17T14:19:10.394Z,47.70
2019-02-17T14:21:36.804Z,48.40
2019-02-17T14:24:03.033Z,47.60
2019-02-17T14:26:29.347Z,47.10
2019-02-17T14:28:55.542Z,47.00
2019-02-17T14:31:40.261Z,48.30
2019-02-17T14:34:06.601Z,47.20
2019-02-17T14:36:32.778Z,47.40
2019-02-17T14:39:00.372Z,45.00
2019-02-17T14:41:29.413Z,46.10
2019-02-17T14:43:58.631Z,45.00
2019-02-17T14:46:27.386Z,45.00
2019-02-17T14:48:53.781Z,45.30
2019-02-17T14:51:20.076Z,45.30
2019-02-17T14:56:12.813Z,45.50
2019-02-17T14:58:39.067Z,46.50
2019-02-17T15:01:05.356Z,46.80
2019-02-17T15:03:31.592Z,46.40
2019-02-17T15:05:57.812Z,46.60
2019-02-17T15:08:39.213Z,47.20
2019-02-17T15:11:05.413Z,47.40
2019-02-17T15:13:32.689Z,47.60
2019-02-17T15:15:58.936Z,48.10
2019-02-17T15:18:25.349Z,47.50
2019-02-17T15:20:51.659Z,47.70
2019-02-17T15:23:36.103Z,48.30
2019-02-17T15:26:02.435Z,48.40
2019-02-17T15:28:28.659Z,48.50
2019-02-17T15:30:55.023Z,48.90
2019-02-17T15:33:21.257Z,49.10
2019-02-17T15:35:47.581Z,49.20
2019-02-17T15:38:13.742Z,49.60
2019-02-17T15:40:39.929Z,50.40
2019-02-17T15:43:06.101Z,50.50
2019-02-17T15:45:32.300Z,51.00
2019-02-17T15:47:58.461Z,51.10
2019-02-17T15:50:24.662Z,51.50
2019-02-17T15:52:50.839Z,51.70
2019-02-17T15:55:17.148Z,51.80
2019-02-17T15:57:43.461Z,52.10
2019-02-17T16:00:31.391Z,52.30
2019-02-17T16:02:57.630Z,52.60
2019-02-17T16:05:23.797Z,52.70
2019-02-17T16:07:50.034Z,52.80
2019-02-17T16:10:16.716Z,53.10
2019-02-17T16:12:58.159Z,53.40
2019-02-17T16:15:27.065Z,53.40
2019-02-17T16:18:11.830Z,53.60
2019-02-17T16:20:38.008Z,53.80
2019-02-17T16:23:04.222Z,54.10
2019-02-17T16:25:36.010Z,54.40
2019-02-17T16:28:02.268Z,54.70
2019-02-17T16:30:28.517Z,54.80
2019-02-17T16:32:54.792Z,55.00
2019-02-17T16:35:39.920Z,54.80
2019-02-17T16:38:06.109Z,55.00
2019-02-17T16:40:47.573Z,55.10
2019-02-17T16:43:13.883Z,55.30
2019-02-17T16:45:40.066Z,55.30
2019-02-17T16:48:06.245Z,55.40
2019-02-17T16:50:32.573Z,55.40
2019-02-17T16:52:58.781Z,55.50
2019-02-17T16:55:25.278Z,55.50
2019-02-17T16:57:51.575Z,55.70
2019-02-17T17:00:22.747Z,55.80
2019-02-17T17:02:50.487Z,55.70
2019-02-17T17:05:16.841Z,55.80
2019-02-17T17:07:43.336Z,55.70
2019-02-17T17:10:09.922Z,55.70
2019-02-17T17:12:38.989Z,55.70
2019-02-17T17:15:08.533Z,55.90
2019-02-17T17:17:37.280Z,56.10
2019-02-17T17:20:14.688Z,56.20
2019-02-17T17:22:41.042Z,56.20
2019-02-17T17:25:08.862Z,56.40
2019-02-17T17:27:35.091Z,56.50
2019-02-17T17:30:01.391Z,56.60
2019-02-17T17:32:30.401Z,56.50
2019-02-17T17:35:14.903Z,56.50
2019-02-17T17:37:41.154Z,56.40
2019-02-17T17:40:16.198Z,56.30
2019-02-17T17:42:42.483Z,56.50
2019-02-17T17:45:11.917Z,56.50
2019-02-17T17:47:47.198Z,56.70
2019-02-17T17:50:14.451Z,56.50
2019-02-17T17:52:40.834Z,56.60
2019-02-17T17:55:08.678Z,56.80
2019-02-17T17:57:38.837Z,56.90
2019-02-17T18:00:15.482Z,56.90
2019-02-17T18:03:00.064Z,56.80
2019-02-17T18:05:26.445Z,56.80
2019-02-17T18:07:58.169Z,56.90
2019-02-17T18:10:24.494Z,57.40
2019-02-17T18:12:50.768Z,57.20
2019-02-17T18:15:18.240Z,57.10
2019-02-17T18:18:03.345Z,57.20
2019-02-17T18:20:32.342Z,57.20
2019-02-17T18:22:58.533Z,57.30
2019-02-17T18:25:24.734Z,58.10
2019-02-17T18:27:50.912Z,58.40
2019-02-17T18:30:20.334Z,58.90
2019-02-17T18:32:46.632Z,58.50
2019-02-17T18:35:19.591Z,58.60
2019-02-17T18:37:43.595Z,58.60
2019-02-17T18:40:28.121Z,58.80
2019-02-17T18:42:54.671Z,58.90
2019-02-17T18:45:36.302Z,59.00
2019-02-17T18:48:02.628Z,59.30
2019-02-17T18:50:28.866Z,59.30
2019-02-17T18:52:55.070Z,59.30
2019-02-17T18:55:27.512Z,59.30
2019-02-17T18:57:53.749Z,59.40
2019-02-17T19:00:24.716Z,59.60
2019-02-17T19:02:50.971Z,59.70
2019-02-17T19:05:17.181Z,59.80
2019-02-17T19:07:43.464Z,60.00
2019-02-17T19:10:13.496Z,60.00
2019-02-17T19:12:40.012Z,60.20
2019-02-17T19:15:24.733Z,60.40
2019-02-17T19:17:50.941Z,60.40
2019-02-17T19:20:35.513Z,60.40
2019-02-17T19:23:19.823Z,60.40
2019-02-17T19:25:46.025Z,60.40
2019-02-17T19:28:12.315Z,60.60
2019-02-17T19:30:38.655Z,60.70
2019-02-17T19:33:04.990Z,60.70
2019-02-17T19:35:42.281Z,60.80
2019-02-17T19:38:08.769Z,60.80
2019-02-17T19:40:35.056Z,60.90
2019-02-17T19:43:03.481Z,60.90
2019-02-17T19:45:48.584Z,61.20
2019-02-17T19:48:14.786Z,61.20
2019-02-17T19:50:40.974Z,62.00
2019-02-17T19:53:07.194Z,61.20
2019-02-17T19:55:33.375Z,61.50
2019-02-17T19:57:59.557Z,61.60
2019-02-17T20:00:28.291Z,61.50
2019-02-17T20:03:08.487Z,61.60
2019-02-17T20:06:01.031Z,62.00
2019-02-17T20:08:30.092Z,61.90
2019-02-17T20:11:14.805Z,62.20
2019-02-17T20:13:41.035Z,62.00
2019-02-17T20:16:26.133Z,62.30
2019-02-17T20:19:11.110Z,62.40
2019-02-17T20:21:37.369Z,62.70
2019-02-17T20:24:08.076Z,62.70
2019-02-17T20:26:34.637Z,62.90
2019-02-17T20:29:00.925Z,63.00
2019-02-17T20:31:27.187Z,63.00
2019-02-17T20:33:53.376Z,63.30
2019-02-17T20:36:19.572Z,63.10
2019-02-17T20:38:45.988Z,63.40
2019-02-17T20:41:12.297Z,63.60
2019-02-17T20:43:38.485Z,63.70
2019-02-17T20:46:04.752Z,63.60
2019-02-17T20:48:31.011Z,63.60
2019-02-17T20:50:57.216Z,63.50
2019-02-17T20:53:23.405Z,63.40
2019-02-17T20:55:49.659Z,63.60
2019-02-17T20:58:15.872Z,63.80
2019-02-17T21:00:42.082Z,64.00
2019-02-17T21:03:11.222Z,64.10
2019-02-17T21:05:37.459Z,64.20
2019-02-17T21:08:15.955Z,64.30
2019-02-17T21:10:42.402Z,64.40
2019-02-17T21:13:08.679Z,64.30
2019-02-17T21:15:34.878Z,64.30
2019-02-17T21:18:03.907Z,64.30
2019-02-17T21:20:30.625Z,64.10
2019-02-17T21:23:15.584Z,64.00
2019-02-17T21:25:41.774Z,64.00
2019-02-17T21:28:07.998Z,64.00
2019-02-17T21:30:34.205Z,64.10
2019-02-17T21:33:00.408Z,64.10
2019-02-17T21:35:29.118Z,64.10
2019-02-17T21:37:55.352Z,64.20
2019-02-17T21:40:21.747Z,64.20
2019-02-17T21:42:47.971Z,64.10
2019-02-17T21:45:15.122Z,64.30
2019-02-17T21:47:41.363Z,64.40
2019-02-17T21:50:09.647Z,64.30
2019-02-17T21:52:35.981Z,64.10
2019-02-17T21:55:04.230Z,64.40
2019-02-17T21:57:32.985Z,64.50
2019-02-17T22:00:03.807Z,64.50
2019-02-17T22:02:30.139Z,64.80
2019-02-17T22:04:56.315Z,64.80
2019-02-17T22:07:22.486Z,64.90
2019-02-17T22:09:48.709Z,65.00
2019-02-17T22:12:15.045Z,65.20
2019-02-17T22:14:41.222Z,65.30
2019-02-17T22:17:07.434Z,65.50
2019-02-17T22:19:33.627Z,65.40
2019-02-17T22:21:59.800Z,65.30
2019-02-17T22:24:26.096Z,65.50
2019-02-17T22:26:52.259Z,65.60
2019-02-17T22:29:21.080Z,65.60
2019-02-17T22:31:47.333Z,65.70
2019-02-17T22:34:13.610Z,65.60
2019-02-17T22:36:52.168Z,65.50
2019-02-17T22:39:18.358Z,65.40
2019-02-17T22:41:44.534Z,65.60
2019-02-17T22:44:13.372Z,65.60
2019-02-17T22:46:39.562Z,65.40
2019-02-17T22:49:05.883Z,65.30
2019-02-17T22:51:32.066Z,65.30
2019-02-17T22:53:58.254Z,65.50
2019-02-17T22:56:24.442Z,65.60
2019-02-17T22:58:50.751Z,65.50
2019-02-17T23:01:20.563Z,65.60
2019-02-17T23:03:46.759Z,65.80
2019-02-17T23:06:12.990Z,66.00
2019-02-17T23:08:39.188Z,66.00
2019-02-17T23:11:05.400Z,66.30
2019-02-17T23:13:31.621Z,66.40
2019-02-17T23:15:57.806Z,66.40
2019-02-17T23:18:24.094Z,66.50
2019-02-17T23:20:50.289Z,66.80
2019-02-17T23:23:16.677Z,66.70
2019-02-17T23:25:42.982Z,66.80
2019-02-17T23:28:12.086Z,66.70
2019-02-17T23:30:38.452Z,66.60
2019-02-17T23:33:07.257Z,66.40
2019-02-17T23:35:33.455Z,66.40
2019-02-17T23:37:59.614Z,66.50
2019-02-17T23:40:25.890Z,66.50
2019-02-17T23:42:52.060Z,66.40
2019-02-17T23:45:18.292Z,66.30
2019-02-17T23:47:44.479Z,66.50
2019-02-17T23:50:12.247Z,67.10
2019-02-17T23:52:38.542Z,66.30
2019-02-17T23:55:05.746Z,66.40
2019-02-17T23:57:34.742Z,66.40
